Time;durP1;ratioP1;P1;durP2;ratioP2;P2;SDS_P1;SDS_P2;PMS_P1;PMS_P2;Temp;Humidity;BMP_temperature;BMP_pressure;BME280_temperature;BME280_humidity;BME280_pressure;Samples;Min_cycle;Max_cycle;Signal;HPM_P1;HPM_P2
2022/08/26 00:00:24;;;;;;;12.65;2.40;;;40.60;48.80;;;;;;5057669;28;20637;-71
2022/08/26 00:02:51;;;;;;;7.93;2.10;;;40.60;48.10;;;;;;5056762;28;20120;-72
2022/08/26 00:05:17;;;;;;;19.77;2.40;;;40.60;48.20;;;;;;5061940;28;20097;-69
2022/08/26 00:07:44;;;;;;;14.68;2.42;;;40.70;48.10;;;;;;5061019;28;20062;-69
2022/08/26 00:10:11;;;;;;;13.35;2.05;;;40.70;47.80;;;;;;5064689;28;20074;-72
2022/08/26 00:12:38;;;;;;;16.90;2.58;;;40.60;47.90;;;;;;5062413;28;20116;-71
2022/08/26 00:15:07;;;;;;;13.25;2.40;;;40.50;48.10;;;;;;5064975;28;20052;-72
2022/08/26 00:17:34;;;;;;;8.20;1.92;;;40.50;48.00;;;;;;5062525;28;20075;-69
2022/08/26 00:20:00;;;;;;;13.85;2.33;;;40.50;47.70;;;;;;5061310;28;20549;-71
2022/08/26 00:22:27;;;;;;;7.88;1.70;;;40.60;48.10;;;;;;5064557;28;20080;-70
2022/08/26 00:24:53;;;;;;;12.00;2.25;;;40.60;48.00;;;;;;5066643;28;20054;-69
2022/08/26 00:27:20;;;;;;;11.02;2.70;;;40.50;47.40;;;;;;5066456;28;20068;-71
2022/08/26 00:29:46;;;;;;;7.95;2.25;;;40.50;47.80;;;;;;5066023;28;20074;-70
2022/08/26 00:32:12;;;;;;;9.30;2.47;;;40.50;47.80;;;;;;5064658;28;20131;-71
2022/08/26 00:34:39;;;;;;;12.48;2.15;;;40.60;47.70;;;;;;5068787;28;20070;-65
2022/08/26 00:37:05;;;;;;;15.07;2.17;;;40.50;48.10;;;;;;5070283;28;20176;-65
2022/08/26 00:39:32;;;;;;;8.13;1.77;;;40.50;47.80;;;;;;5067462;28;20533;-65
2022/08/26 00:41:59;;;;;;;10.93;2.38;;;40.40;47.80;;;;;;5067645;28;20546;-65
2022/08/26 00:44:25;;;;;;;14.82;2.38;;;40.40;47.70;;;;;;5069837;28;20119;-65
2022/08/26 00:47:02;;;;;;;11.15;2.47;;;40.30;47.80;;;;;;5070334;28;20068;-65
2022/08/26 00:49:39;;;;;;;9.75;2.05;;;40.20;48.10;;;;;;5066254;28;20078;-65
2022/08/26 00:52:14;;;;;;;13.25;1.98;;;40.10;47.80;;;;;;5066323;28;20076;-65
2022/08/26 00:54:50;;;;;;;19.42;2.50;;;40.10;48.20;;;;;;5069148;28;20197;-64
2022/08/26 00:57:19;;;;;;;9.82;1.95;;;40.10;48.20;;;;;;5067516;28;21510;-67
2022/08/26 00:59:50;;;;;;;6.03;1.80;;;40.10;48.50;;;;;;5070305;28;20534;-65
2022/08/26 01:02:16;;;;;;;8.50;2.30;;;40.10;48.50;;;;;;5069620;28;20446;-67
2022/08/26 01:04:43;;;;;;;12.48;1.95;;;40.00;49.00;;;;;;5052291;28;20114;-64
2022/08/26 01:07:10;;;;;;;11.38;2.10;;;39.90;48.60;;;;;;5070126;28;20093;-65
2022/08/26 01:09:37;;;;;;;11.30;2.17;;;40.00;48.90;;;;;;5067384;28;20094;-65
2022/08/26 01:12:03;;;;;;;12.20;2.08;;;40.00;48.50;;;;;;5052309;28;20072;-65
2022/08/26 01:14:33;;;;;;;6.05;2.13;;;40.00;48.40;;;;;;5053003;28;20513;-66
2022/08/26 01:17:05;;;;;;;13.93;2.08;;;40.00;48.80;;;;;;5067443;28;20068;-66
2022/08/26 01:19:40;;;;;;;7.57;1.85;;;40.00;48.50;;;;;;5066922;28;20069;-66
2022/08/26 01:22:18;;;;;;;14.98;2.63;;;39.90;48.90;;;;;;5067911;28;20172;-66
2022/08/26 01:24:46;;;;;;;7.03;2.15;;;39.70;48.80;;;;;;5070867;28;20074;-66
2022/08/26 01:27:17;;;;;;;13.20;2.10;;;39.70;48.90;;;;;;5065801;28;20083;-67
2022/08/26 01:29:45;;;;;;;11.93;2.38;;;39.70;49.60;;;;;;5061598;28;20073;-69
2022/08/26 01:32:17;;;;;;;10.68;2.28;;;39.60;49.60;;;;;;5066713;28;20564;-66
2022/08/26 01:34:46;;;;;;;11.35;2.30;;;39.50;49.10;;;;;;5070064;28;20083;-66
2022/08/26 01:37:35;;;;;;;10.07;2.15;;;39.40;49.60;;;;;;5067635;28;20074;-67
2022/08/26 01:40:04;;;;;;;11.20;2.33;;;39.40;49.60;;;;;;5066550;28;20090;-67
2022/08/26 01:42:31;;;;;;;9.30;2.10;;;39.30;49.90;;;;;;5063722;28;20112;-68
2022/08/26 01:45:11;;;;;;;12.18;2.63;;;39.10;49.80;;;;;;5062753;28;20497;-66
2022/08/26 01:47:38;;;;;;;9.85;2.10;;;39.10;49.90;;;;;;5063437;28;20070;-66
2022/08/26 01:50:09;;;;;;;10.00;2.28;;;39.00;50.20;;;;;;5067483;28;20092;-66
2022/08/26 01:52:39;;;;;;;8.27;1.98;;;39.00;50.00;;;;;;5068203;28;20077;-68
2022/08/26 01:55:07;;;;;;;8.35;1.85;;;38.90;50.10;;;;;;5067792;28;20065;-67
2022/08/26 01:57:36;;;;;;;14.10;1.90;;;38.90;50.50;;;;;;5063282;28;20530;-67
2022/08/26 02:00:07;;;;;;;7.70;2.25;;;38.80;50.50;;;;;;5068602;28;20080;-67
2022/08/26 02:02:34;;;;;;;16.80;2.40;;;38.80;51.20;;;;;;5068204;28;20447;-66
2022/08/26 02:05:04;;;;;;;13.95;1.98;;;38.70;51.10;;;;;;5061080;28;20115;-67
2022/08/26 02:07:36;;;;;;;12.45;2.05;;;38.70;50.80;;;;;;5068233;28;20162;-68
2022/08/26 02:10:04;;;;;;;20.20;4.15;;;38.60;51.60;;;;;;5069459;28;20076;-68
2022/08/26 02:12:30;;;;;;;18.85;2.97;;;38.50;51.70;;;;;;5066725;28;20098;-67
2022/08/26 02:15:01;;;;;;;25.27;3.33;;;38.50;51.70;;;;;;5068284;28;20076;-66
2022/08/26 02:17:38;;;;;;;14.85;3.30;;;38.40;51.60;;;;;;5068980;28;20161;-65
2022/08/26 02:20:06;;;;;;;13.93;2.50;;;38.40;52.10;;;;;;5058622;28;20094;-66
2022/08/26 02:22:33;;;;;;;13.20;2.65;;;38.30;52.00;;;;;;5065789;28;20121;-64
2022/08/26 02:25:20;;;;;;;20.92;3.30;;;38.30;52.00;;;;;;5067561;28;20487;-64
2022/08/26 02:27:47;;;;;;;19.83;3.25;;;38.30;52.00;;;;;;5067573;28;20083;-67
2022/08/26 02:30:17;;;;;;;21.38;3.10;;;38.30;52.00;;;;;;5066109;28;20448;-67
2022/08/26 02:32:45;;;;;;;18.02;3.58;;;38.20;51.80;;;;;;5068390;28;20557;-66
2022/08/26 02:35:13;;;;;;;30.23;3.33;;;38.20;51.90;;;;;;5067371;28;20118;-66
2022/08/26 02:37:42;;;;;;;15.00;3.50;;;38.20;52.00;;;;;;5060253;28;20067;-68
2022/08/26 02:40:11;;;;;;;28.65;3.50;;;38.10;52.00;;;;;;5062542;28;20159;-64
2022/08/26 02:42:37;;;;;;;12.48;2.80;;;38.10;51.80;;;;;;5066175;28;20086;-65
2022/08/26 02:45:05;;;;;;;16.98;3.15;;;38.10;51.70;;;;;;5082275;28;20076;-66
2022/08/26 02:47:33;;;;;;;14.63;3.13;;;38.10;51.70;;;;;;5067146;28;20117;-68
2022/08/26 02:50:00;;;;;;;30.40;3.83;;;38.00;51.40;;;;;;5049601;28;20129;-66
2022/08/26 02:52:26;;;;;;;27.65;3.88;;;38.00;51.50;;;;;;5050363;28;20561;-64
2022/08/26 02:54:53;;;;;;;23.73;3.35;;;38.00;51.60;;;;;;5069070;28;20072;-65
2022/08/26 02:57:20;;;;;;;27.75;3.72;;;37.90;51.50;;;;;;5050710;28;20072;-65
2022/08/26 02:59:46;;;;;;;26.70;3.78;;;37.90;51.60;;;;;;5067688;28;20074;-64
2022/08/26 03:02:13;;;;;;;31.52;3.80;;;37.80;51.80;;;;;;5067068;28;20472;-65
2022/08/26 03:04:40;;;;;;;36.80;4.13;;;37.80;52.00;;;;;;5067815;28;20107;-64
2022/08/26 03:07:06;;;;;;;36.97;4.20;;;37.80;52.10;;;;;;5066760;28;20168;-65
2022/08/26 03:09:34;;;;;;;46.60;3.78;;;37.80;52.00;;;;;;5066400;28;20495;-64
2022/08/26 03:12:00;;;;;;;34.55;4.43;;;37.70;52.00;;;;;;5065926;28;20112;-64
2022/08/26 03:14:27;;;;;;;32.40;3.92;;;37.80;52.00;;;;;;5066949;28;20072;-65
2022/08/26 03:16:54;;;;;;;26.05;4.10;;;37.70;52.00;;;;;;5065833;28;20441;-64
2022/08/26 03:19:25;;;;;;;39.55;5.28;;;37.70;52.20;;;;;;5065904;28;20548;-64
2022/08/26 03:21:52;;;;;;;41.63;4.72;;;37.70;51.80;;;;;;5066136;28;20107;-64
2022/08/26 03:24:19;;;;;;;33.25;4.13;;;37.60;51.60;;;;;;5066045;28;20074;-65
2022/08/26 03:26:46;;;;;;;34.10;4.30;;;37.60;51.50;;;;;;5067112;28;20072;-65
2022/08/26 03:31:58;;;;;;;29.38;4.28;;;37.60;51.50;;;;;;5068266;28;20103;-64
2022/08/26 03:34:24;;;;;;;25.48;4.20;;;37.50;52.10;;;;;;5062809;28;20080;-66
2022/08/26 03:36:51;;;;;;;29.73;4.13;;;37.50;51.80;;;;;;5066009;28;20158;-64
2022/08/26 03:39:17;;;;;;;41.38;4.93;;;37.40;52.10;;;;;;5066021;28;20159;-63
2022/08/26 03:41:44;;;;;;;23.52;3.83;;;37.40;51.50;;;;;;5066047;28;20128;-64
2022/08/26 03:44:12;;;;;;;33.63;4.50;;;37.40;51.70;;;;;;5065643;28;20088;-64
2022/08/26 03:46:39;;;;;;;31.88;5.22;;;37.30;51.60;;;;;;5068575;28;20475;-65
2022/08/26 03:49:06;;;;;;;36.90;4.72;;;37.30;51.60;;;;;;5066566;28;20430;-64
2022/08/26 03:51:34;;;;;;;33.00;4.15;;;37.30;51.90;;;;;;5067383;28;20068;-63
2022/08/26 03:54:01;;;;;;;47.78;4.97;;;37.30;52.20;;;;;;5065605;28;20077;-64
2022/08/26 03:56:29;;;;;;;35.97;5.07;;;37.20;51.90;;;;;;5063038;28;20068;-65
2022/08/26 03:58:56;;;;;;;27.30;4.90;;;37.20;51.70;;;;;;5066927;28;20110;-65
2022/08/26 04:01:23;;;;;;;29.90;5.28;;;37.20;51.70;;;;;;5069143;28;20077;-65
2022/08/26 04:03:58;;;;;;;36.65;5.30;;;37.10;51.70;;;;;;5065894;28;20072;-66
2022/08/26 04:06:43;;;;;;;43.80;5.38;;;37.10;51.70;;;;;;5066983;28;20119;-65
2022/08/26 04:09:13;;;;;;;36.28;3.95;;;37.10;52.00;;;;;;5050281;28;20105;-66
2022/08/26 04:11:43;;;;;;;31.77;4.53;;;37.10;52.40;;;;;;5070765;28;20116;-63
2022/08/26 04:14:13;;;;;;;28.45;4.95;;;37.00;52.70;;;;;;5068908;28;20423;-65
2022/08/26 04:16:41;;;;;;;24.90;4.32;;;37.00;53.10;;;;;;5069542;28;20539;-65
2022/08/26 04:19:09;;;;;;;27.45;4.38;;;37.00;53.30;;;;;;5070783;28;20151;-64
2022/08/26 04:21:40;;;;;;;44.97;4.53;;;36.90;53.50;;;;;;5068616;28;20095;-64
2022/08/26 04:24:08;;;;;;;42.28;4.80;;;36.90;54.00;;;;;;5066295;28;20113;-63
2022/08/26 04:26:36;;;;;;;39.55;5.28;;;36.90;53.90;;;;;;5068196;28;20092;-65
2022/08/26 04:29:10;;;;;;;32.83;4.88;;;36.80;54.10;;;;;;5066278;28;20104;-65
2022/08/26 04:31:37;;;;;;;29.15;4.95;;;36.80;54.40;;;;;;5071129;28;20077;-66
2022/08/26 04:34:04;;;;;;;39.70;4.78;;;36.80;55.20;;;;;;5070085;28;20071;-65
2022/08/26 04:36:31;;;;;;;39.85;4.22;;;36.70;55.50;;;;;;5071134;28;20064;-64
2022/08/26 04:39:01;;;;;;;27.58;4.18;;;36.60;55.60;;;;;;5070443;28;20293;-66
2022/08/26 04:41:28;;;;;;;23.98;3.78;;;36.60;55.30;;;;;;5068180;28;20204;-66
2022/08/26 04:43:55;;;;;;;27.58;4.43;;;36.60;54.50;;;;;;5073026;28;20065;-63
2022/08/26 04:46:23;;;;;;;23.27;4.07;;;36.50;54.30;;;;;;5071196;28;20418;-67
2022/08/26 04:48:51;;;;;;;19.55;4.07;;;36.40;54.40;;;;;;5068440;28;20201;-65
2022/08/26 04:51:19;;;;;;;27.42;4.22;;;36.40;53.90;;;;;;5071137;28;20076;-65
2022/08/26 04:53:46;;;;;;;28.85;4.55;;;36.40;53.90;;;;;;5067162;28;20542;-64
2022/08/26 04:56:13;;;;;;;23.30;4.28;;;36.30;53.80;;;;;;5070313;28;20152;-63
2022/08/26 04:58:40;;;;;;;24.00;4.50;;;36.30;53.50;;;;;;5070569;28;20071;-64
2022/08/26 05:01:07;;;;;;;29.58;4.13;;;36.30;53.50;;;;;;5070578;28;20565;-65
2022/08/26 05:03:35;;;;;;;26.67;4.15;;;36.30;53.50;;;;;;5070740;28;20084;-65
2022/08/26 05:06:04;;;;;;;31.35;4.35;;;36.20;53.60;;;;;;5068522;28;20111;-65
2022/08/26 05:08:31;;;;;;;22.65;3.58;;;36.20;53.60;;;;;;5068406;28;20072;-66
2022/08/26 05:10:57;;;;;;;26.40;4.05;;;36.10;53.70;;;;;;5067611;28;20087;-65
2022/08/26 05:13:26;;;;;;;27.42;3.67;;;36.10;53.80;;;;;;5068406;28;20099;-65
2022/08/26 05:15:53;;;;;;;18.30;3.53;;;36.10;53.90;;;;;;5064978;28;20496;-66
2022/08/26 05:18:24;;;;;;;21.15;4.03;;;36.00;53.70;;;;;;5068846;28;20553;-65
2022/08/26 05:20:52;;;;;;;32.78;5.07;;;35.90;54.00;;;;;;5066430;28;20076;-69
2022/08/26 05:23:21;;;;;;;20.10;5.43;;;35.90;54.00;;;;;;5065977;28;20096;-68
2022/08/26 05:25:49;;;;;;;26.30;5.63;;;35.90;54.00;;;;;;5068492;28;20084;-64
2022/08/26 05:28:18;;;;;;;27.92;6.35;;;35.90;54.30;;;;;;5068181;28;20076;-67
2022/08/26 05:30:45;;;;;;;29.85;6.10;;;35.80;54.20;;;;;;5067775;28;20092;-66
2022/08/26 05:33:12;;;;;;;27.27;6.28;;;35.70;54.10;;;;;;5068297;28;20094;-65
2022/08/26 05:35:39;;;;;;;21.60;6.10;;;35.70;54.30;;;;;;5068777;28;20084;-65
2022/08/26 05:38:14;;;;;;;26.58;6.15;;;35.70;54.50;;;;;;5068539;28;20601;-65
2022/08/26 05:40:44;;;;;;;22.45;6.55;;;35.60;54.40;;;;;;5067150;28;20099;-66
2022/08/26 05:43:12;;;;;;;28.85;6.78;;;35.60;54.50;;;;;;5065977;28;20561;-66
2022/08/26 05:45:42;;;;;;;22.40;6.15;;;35.60;54.50;;;;;;5065227;28;20479;-64
2022/08/26 05:48:08;;;;;;;24.02;5.28;;;35.50;54.50;;;;;;5061932;28;21376;-67
2022/08/26 05:50:40;;;;;;;27.05;5.63;;;35.50;54.40;;;;;;5062943;28;20072;-67
2022/08/26 05:53:09;;;;;;;17.10;4.97;;;35.40;54.40;;;;;;5062470;28;20594;-71
2022/08/26 05:55:45;;;;;;;15.13;4.50;;;35.40;54.50;;;;;;5064357;28;20108;-66
2022/08/26 05:58:12;;;;;;;22.83;4.35;;;35.50;54.50;;;;;;5060813;28;20176;-66
2022/08/26 06:00:39;;;;;;;18.45;4.10;;;35.40;54.50;;;;;;5061123;28;20073;-65
2022/08/26 06:03:07;;;;;;;24.02;4.20;;;35.40;54.60;;;;;;5062459;28;20092;-63
2022/08/26 06:05:42;;;;;;;25.33;4.40;;;35.40;54.70;;;;;;5062780;28;20571;-67
2022/08/26 06:08:13;;;;;;;14.00;3.50;;;35.30;54.90;;;;;;5078192;28;20085;-65
2022/08/26 06:10:48;;;;;;;14.05;3.65;;;35.30;55.00;;;;;;5060796;28;20176;-65
2022/08/26 06:13:17;;;;;;;22.98;3.33;;;35.20;55.10;;;;;;5066094;28;20127;-65
2022/08/26 06:15:47;;;;;;;17.08;2.67;;;35.20;55.00;;;;;;5065875;28;20444;-67
2022/08/26 06:18:15;;;;;;;17.05;2.92;;;35.20;55.20;;;;;;5079965;28;20097;-64
2022/08/26 06:20:43;;;;;;;15.20;3.00;;;35.10;55.30;;;;;;5067876;28;20176;-67
2022/08/26 06:25:57;;;;;;;16.38;3.10;;;35.10;55.50;;;;;;5066506;28;20083;-64
2022/08/26 06:28:24;;;;;;;22.02;2.75;;;35.00;55.80;;;;;;5066371;28;20083;-64
2022/08/26 06:30:52;;;;;;;7.45;2.42;;;35.00;55.80;;;;;;5069493;28;20076;-64
2022/08/26 06:33:20;;;;;;;12.48;3.38;;;34.90;56.50;;;;;;5067044;28;20192;-66
2022/08/26 06:35:47;;;;;;;22.67;3.35;;;34.90;56.70;;;;;;5069124;28;20088;-64
2022/08/26 06:38:14;;;;;;;26.38;3.80;;;34.90;56.40;;;;;;5065634;28;20522;-65
2022/08/26 06:40:50;;;;;;;17.75;3.03;;;34.80;56.30;;;;;;5067855;28;20080;-64
2022/08/26 06:43:18;;;;;;;16.75;3.33;;;34.80;56.20;;;;;;5068849;28;20088;-65
2022/08/26 06:45:45;;;;;;;20.10;3.75;;;34.80;56.20;;;;;;5061868;28;20073;-65
2022/08/26 06:48:14;;;;;;;20.33;3.42;;;34.70;56.30;;;;;;5067364;28;20164;-65
2022/08/26 06:50:41;;;;;;;11.32;3.35;;;34.70;56.50;;;;;;5067805;28;20088;-66
2022/08/26 06:53:09;;;;;;;16.35;3.03;;;34.70;56.90;;;;;;5066701;28;20084;-66
2022/08/26 06:55:44;;;;;;;17.65;2.80;;;34.70;56.50;;;;;;5066916;28;20087;-64
2022/08/26 06:58:12;;;;;;;22.42;3.55;;;34.70;56.80;;;;;;5064600;28;20076;-64
2022/08/26 07:00:39;;;;;;;18.83;3.05;;;34.60;56.70;;;;;;5067118;28;20088;-63
2022/08/26 07:03:06;;;;;;;13.80;2.60;;;34.60;56.80;;;;;;5064190;28;20081;-65
2022/08/26 07:05:34;;;;;;;9.38;2.67;;;34.60;56.80;;;;;;5067129;28;20140;-64
2022/08/26 07:08:01;;;;;;;8.98;2.55;;;34.60;57.00;;;;;;5066427;28;20093;-64
2022/08/26 07:10:27;;;;;;;17.58;3.45;;;34.50;57.10;;;;;;5066686;28;20131;-64
2022/08/26 07:12:53;;;;;;;15.20;3.38;;;34.50;57.60;;;;;;5062859;28;20129;-64
2022/08/26 07:15:20;;;;;;;23.95;4.00;;;34.40;57.20;;;;;;5065854;28;20146;-64
2022/08/26 07:17:46;;;;;;;29.23;3.55;;;34.40;57.00;;;;;;5063507;28;20174;-66
2022/08/26 07:20:13;;;;;;;31.80;3.13;;;34.40;57.00;;;;;;5064851;28;20096;-64
2022/08/26 07:22:39;;;;;;;21.35;4.07;;;34.40;57.80;;;;;;5063766;28;20581;-63
2022/08/26 07:25:07;;;;;;;20.75;3.22;;;34.40;57.80;;;;;;5065403;28;20114;-63
2022/08/26 07:27:36;;;;;;;15.25;3.50;;;34.40;57.90;;;;;;5065279;28;20073;-65
2022/08/26 07:30:05;;;;;;;22.95;3.40;;;34.30;58.50;;;;;;5065019;28;20085;-65
2022/08/26 07:32:31;;;;;;;22.77;3.35;;;34.30;58.20;;;;;;5068139;28;20100;-66
2022/08/26 07:34:58;;;;;;;19.10;3.38;;;34.30;58.10;;;;;;5066317;28;20065;-66
2022/08/26 07:37:24;;;;;;;18.38;3.38;;;34.20;58.20;;;;;;5066495;28;20427;-65
2022/08/26 07:39:51;;;;;;;19.90;3.10;;;34.20;58.70;;;;;;5066638;28;20092;-63
2022/08/26 07:42:19;;;;;;;15.90;3.40;;;34.10;58.60;;;;;;5065347;28;20112;-67
2022/08/26 07:44:45;;;;;;;15.52;3.05;;;34.10;59.50;;;;;;5065861;28;20077;-65
2022/08/26 07:47:13;;;;;;;17.05;3.17;;;34.10;59.00;;;;;;5067359;28;20142;-66
2022/08/26 07:49:40;;;;;;;12.05;3.03;;;34.00;59.30;;;;;;5078546;28;20142;-68
2022/08/26 07:52:07;;;;;;;21.55;3.38;;;34.00;58.80;;;;;;5065153;28;20092;-66
2022/08/26 07:54:36;;;;;;;11.30;2.90;;;34.00;59.00;;;;;;5061210;28;20558;-65
2022/08/26 07:57:03;;;;;;;11.23;2.63;;;34.00;59.80;;;;;;5066399;28;20077;-65
2022/08/26 07:59:31;;;;;;;9.75;3.60;;;33.90;59.30;;;;;;5067178;28;20066;-66
2022/08/26 08:01:58;;;;;;;15.35;3.35;;;33.90;59.60;;;;;;5067123;28;21415;-65
2022/08/26 08:04:25;;;;;;;25.73;3.78;;;33.90;59.10;;;;;;5065837;28;20438;-65
2022/08/26 08:06:51;;;;;;;26.75;3.83;;;33.90;59.40;;;;;;5065435;28;20076;-64
2022/08/26 08:09:18;;;;;;;23.40;3.70;;;33.90;59.50;;;;;;5065743;28;20064;-65
2022/08/26 08:11:44;;;;;;;18.10;3.85;;;33.90;60.30;;;;;;5065330;28;20530;-65
2022/08/26 08:14:11;;;;;;;19.63;3.33;;;33.90;60.00;;;;;;5047135;28;20080;-66
2022/08/26 08:16:38;;;;;;;18.85;3.15;;;33.80;59.50;;;;;;5063898;28;20073;-64
2022/08/26 08:19:05;;;;;;;19.05;2.92;;;33.80;59.60;;;;;;5066109;28;20128;-65
2022/08/26 08:21:31;;;;;;;12.13;2.55;;;33.80;60.40;;;;;;5065693;28;20073;-65
2022/08/26 08:23:58;;;;;;;9.93;2.30;;;33.80;60.10;;;;;;5066870;28;20085;-66
2022/08/26 08:26:25;;;;;;;9.80;2.63;;;33.70;60.00;;;;;;5060302;28;20077;-65
2022/08/26 08:28:56;;;;;;;10.25;2.95;;;33.70;59.80;;;;;;5065332;28;20412;-65
2022/08/26 08:31:29;;;;;;;8.65;3.33;;;33.70;60.00;;;;;;5066896;28;20073;-65
2022/08/26 08:33:55;;;;;;;13.18;3.78;;;33.70;59.90;;;;;;5065012;28;20080;-64
2022/08/26 08:36:22;;;;;;;12.90;3.92;;;33.60;60.20;;;;;;5065299;28;20104;-65
2022/08/26 08:38:48;;;;;;;17.38;4.53;;;33.60;60.60;;;;;;5067172;28;20073;-64
2022/08/26 08:41:53;;;;;;;14.82;5.07;;;33.60;60.60;;;;;;5065847;28;20081;-65
2022/08/26 08:44:22;;;;;;;21.73;8.13;;;33.60;60.80;;;;;;5050249;28;20414;-65
2022/08/26 08:46:57;;;;;;;27.60;9.52;;;33.60;60.50;;;;;;5048662;28;20124;-65
2022/08/26 08:49:24;;;;;;;24.77;9.40;;;33.60;60.00;;;;;;5064503;28;20076;-65
2022/08/26 08:52:03;;;;;;;27.73;9.75;;;33.60;60.50;;;;;;5063504;28;20569;-64
2022/08/26 08:54:31;;;;;;;26.38;10.88;;;33.60;61.40;;;;;;5065797;28;20088;-64
2022/08/26 08:57:14;;;;;;;22.85;10.70;;;33.50;61.20;;;;;;5067098;28;20416;-64
2022/08/26 08:59:52;;;;;;;28.08;10.48;;;33.50;61.50;;;;;;5068396;28;20093;-64
2022/08/26 09:02:33;;;;;;;40.67;11.93;;;33.40;61.30;;;;;;5068128;28;20520;-64
2022/08/26 09:05:38;;;;;;;33.03;11.88;;;33.40;61.40;;;;;;5069129;28;20131;-65
2022/08/26 09:08:14;;;;;;;23.75;10.77;;;33.40;61.30;;;;;;4972076;28;20103;-64
2022/08/26 09:10:46;;;;;;;29.17;10.93;;;33.40;62.00;;;;;;4970953;28;20110;-65
2022/08/26 09:13:16;;;;;;;26.13;10.40;;;33.40;61.90;;;;;;4986181;28;20515;-64
2022/08/26 09:15:57;;;;;;;30.25;10.55;;;33.20;62.00;;;;;;4986893;28;20520;-66
2022/08/26 09:18:24;;;;;;;28.02;9.63;;;33.20;62.90;;;;;;4987035;28;20101;-65
2022/08/26 09:21:04;;;;;;;28.02;8.82;;;33.20;62.20;;;;;;4988835;28;20071;-65
2022/08/26 09:23:33;;;;;;;27.35;8.10;;;33.30;62.40;;;;;;4971882;28;20537;-65
2022/08/26 09:26:02;;;;;;;27.95;8.73;;;33.30;62.20;;;;;;4989835;28;20580;-65
2022/08/26 09:28:30;;;;;;;20.60;6.22;;;33.30;63.00;;;;;;4968976;28;20078;-64
2022/08/26 09:31:13;;;;;;;18.40;5.85;;;33.20;63.20;;;;;;4973269;28;20086;-65
2022/08/26 09:33:40;;;;;;;26.48;4.93;;;33.20;62.90;;;;;;4971842;28;20453;-65
2022/08/26 09:36:21;;;;;;;13.88;3.97;;;33.20;62.60;;;;;;4988270;28;20097;-64
2022/08/26 09:38:48;;;;;;;11.98;3.85;;;33.20;62.90;;;;;;4971877;28;20477;-66
2022/08/26 09:41:31;;;;;;;20.23;4.15;;;33.20;63.00;;;;;;4970028;28;20537;-65
2022/08/26 09:44:06;;;;;;;8.05;2.70;;;33.20;62.80;;;;;;5015327;28;20143;-66
2022/08/26 09:46:33;;;;;;;11.40;3.77;;;33.20;62.20;;;;;;5068086;28;20414;-65
2022/08/26 09:49:26;;;;;;;16.65;3.75;;;33.10;62.50;;;;;;5067802;28;20198;-65
2022/08/26 09:52:07;;;;;;;13.15;3.50;;;33.10;62.90;;;;;;5068330;28;20073;-66
2022/08/26 09:54:35;;;;;;;17.13;3.80;;;33.10;63.00;;;;;;5066436;28;20515;-65
2022/08/26 09:57:19;;;;;;;13.38;3.20;;;33.00;62.90;;;;;;5068266;28;20100;-65
2022/08/26 09:59:45;;;;;;;19.85;3.63;;;33.00;63.20;;;;;;5068376;28;20081;-65
2022/08/26 10:02:33;;;;;;;16.50;3.50;;;33.10;63.20;;;;;;5066847;28;20502;-66
2022/08/26 10:05:05;;;;;;;14.02;3.63;;;33.10;62.40;;;;;;5069701;28;20116;-64
2022/08/26 10:07:40;;;;;;;10.55;3.45;;;33.00;62.80;;;;;;5069439;28;20164;-64
2022/08/26 10:10:12;;;;;;;15.82;3.90;;;33.00;62.90;;;;;;5067122;28;20535;-64
2022/08/26 10:12:50;;;;;;;14.02;3.90;;;33.00;63.20;;;;;;5067178;28;20097;-65
2022/08/26 10:15:18;;;;;;;14.45;3.92;;;32.90;64.00;;;;;;5062053;28;20104;-66
2022/08/26 10:18:31;;;;;;;16.67;3.90;;;32.90;63.70;;;;;;5067980;28;20189;-65
2022/08/26 10:21:10;;;;;;;10.05;3.60;;;32.80;63.80;;;;;;5054333;28;20176;-67
2022/08/26 10:23:46;;;;;;;13.05;3.88;;;32.80;63.40;;;;;;5066000;28;20080;-65
2022/08/26 10:26:23;;;;;;;19.40;3.97;;;32.80;63.50;;;;;;5067459;28;20088;-67
2022/08/26 10:29:08;;;;;;;12.85;3.80;;;32.80;63.80;;;;;;5063895;28;20543;-65
2022/08/26 10:31:39;;;;;;;11.18;3.45;;;32.80;64.40;;;;;;5068286;28;20102;-65
2022/08/26 10:34:07;;;;;;;17.38;3.60;;;32.80;64.70;;;;;;5067353;28;20130;-65
2022/08/26 10:36:56;;;;;;;15.02;4.03;;;32.70;64.60;;;;;;5052305;28;20519;-65
2022/08/26 10:39:33;;;;;;;13.95;4.07;;;32.70;65.00;;;;;;5066545;28;20503;-65
2022/08/26 10:42:06;;;;;;;16.70;3.67;;;32.70;65.10;;;;;;5061634;28;20088;-65
2022/08/26 10:44:36;;;;;;;13.35;3.58;;;32.70;65.10;;;;;;5065923;28;20211;-65
2022/08/26 10:47:14;;;;;;;23.05;4.40;;;32.60;64.60;;;;;;5068306;28;20069;-65
2022/08/26 10:49:43;;;;;;;15.68;4.05;;;32.60;64.50;;;;;;5064627;28;20147;-65
2022/08/26 10:52:51;;;;;;;11.52;4.07;;;32.60;64.40;;;;;;5066802;28;20134;-64
2022/08/26 10:55:37;;;;;;;13.68;3.65;;;32.60;64.80;;;;;;5067709;28;20076;-65
2022/08/26 10:58:38;;;;;;;16.20;3.42;;;32.60;63.90;;;;;;5069415;28;20084;-65
2022/08/26 11:04:22;;;;;;;14.07;3.50;;;32.50;63.50;;;;;;5066049;28;20138;-64
2022/08/26 11:06:49;;;;;;;15.98;3.20;;;32.40;63.10;;;;;;5066825;28;20182;-64
2022/08/26 11:09:46;;;;;;;14.68;4.07;;;32.40;63.20;;;;;;5066925;28;20123;-64
2022/08/26 11:12:37;;;;;;;19.73;4.82;;;32.40;63.20;;;;;;5063517;28;20101;-64
2022/08/26 11:15:07;;;;;;;16.70;4.10;;;32.30;63.20;;;;;;5067684;28;20114;-64
2022/08/26 11:17:46;;;;;;;15.15;3.67;;;32.40;63.70;;;;;;5065658;28;20081;-66
2022/08/26 11:20:37;;;;;;;13.07;3.33;;;32.30;63.90;;;;;;5066147;28;20138;-66
2022/08/26 11:23:29;;;;;;;17.33;4.22;;;32.30;64.40;;;;;;5065695;28;20077;-65
2022/08/26 11:25:55;;;;;;;24.05;4.60;;;32.30;65.80;;;;;;5054130;28;20088;-64
2022/08/26 11:28:35;;;;;;;17.17;4.95;;;32.30;66.20;;;;;;5067922;28;20434;-65
2022/08/26 11:31:04;;;;;;;19.45;5.78;;;32.30;66.50;;;;;;5062191;28;20081;-65
2022/08/26 11:34:01;;;;;;;22.05;5.22;;;32.30;66.70;;;;;;5068895;28;20716;-64
2022/08/26 11:36:34;;;;;;;;;;;32.30;67.30;;;;;;5065599;28;20445;-64
2022/08/26 11:39:13;;;;;;;25.05;5.78;;;32.20;67.50;;;;;;5066801;28;19957;-64
2022/08/26 11:41:45;;;;;;;23.17;6.10;;;32.20;67.70;;;;;;5064893;28;20122;-66
2022/08/26 11:44:21;;;;;;;24.35;5.68;;;32.20;69.20;;;;;;5080932;28;20077;-64
2022/08/26 11:46:58;;;;;;;26.43;5.00;;;32.20;69.10;;;;;;5065477;28;20079;-65
2022/08/26 11:49:30;;;;;;;23.08;5.28;;;32.20;68.90;;;;;;5067538;28;20154;-66
2022/08/26 11:52:16;;;;;;;27.88;5.20;;;32.20;68.90;;;;;;5048329;28;20073;-65
2022/08/26 11:55:08;;;;;;;26.20;5.23;;;32.20;69.00;;;;;;5050021;28;20225;-65
2022/08/26 11:57:41;;;;;;;30.70;5.45;;;32.10;69.10;;;;;;5063058;28;20340;-64
2022/08/26 12:00:13;;;;;;;28.50;5.40;;;32.00;69.30;;;;;;5065718;28;20090;-65
2022/08/26 12:02:41;;;;;;;60.20;8.35;;;32.00;69.70;;;;;;5065365;28;20096;-65
2022/08/26 12:05:07;;;;;;;52.58;7.72;;;32.00;70.20;;;;;;5049486;28;20139;-65
2022/08/26 12:07:34;;;;;;;56.65;8.20;;;32.00;70.50;;;;;;5064681;28;20091;-65
2022/08/26 12:10:02;;;;;;;58.85;8.77;;;32.00;70.70;;;;;;5066309;28;20077;-65
2022/08/26 12:12:32;;;;;;;88.15;10.13;;;32.00;71.00;;;;;;5047857;28;20910;-65
2022/08/26 12:15:13;;;;;;;88.90;10.90;;;32.00;71.10;;;;;;5066063;28;20492;-65
2022/08/26 12:17:41;;;;;;;87.65;12.25;;;31.90;71.20;;;;;;5065385;28;20085;-66
2022/08/26 12:20:45;;;;;;;77.90;12.38;;;31.90;71.30;;;;;;5065444;28;20092;-66
2022/08/26 12:23:22;;;;;;;87.35;11.25;;;31.90;71.80;;;;;;5005848;28;20606;-66
2022/08/26 12:25:51;;;;;;;90.78;11.50;;;31.90;71.70;;;;;;5005525;28;20086;-66
2022/08/26 12:28:18;;;;;;;78.72;11.38;;;31.90;71.90;;;;;;5006660;28;20083;-65
2022/08/26 12:31:05;;;;;;;81.63;11.38;;;31.90;71.70;;;;;;4992694;28;20128;-65
2022/08/26 12:33:37;;;;;;;75.72;11.15;;;31.90;72.20;;;;;;4993783;28;20109;-65
2022/08/26 12:36:05;;;;;;;76.60;12.40;;;31.80;72.70;;;;;;4994282;28;20121;-65
2022/08/26 12:38:35;;;;;;;70.13;11.32;;;31.80;73.10;;;;;;5009236;28;20176;-64
2022/08/26 12:41:02;;;;;;;60.08;10.43;;;31.80;72.90;;;;;;4992996;28;20079;-66
2022/08/26 12:43:40;;;;;;;64.53;9.95;;;31.70;73.00;;;;;;5009790;28;20110;-65
2022/08/26 12:46:09;;;;;;;52.90;11.25;;;31.70;73.40;;;;;;4988908;28;20117;-66
2022/08/26 12:48:41;;;;;;;60.20;10.57;;;31.60;73.70;;;;;;4962212;28;20109;-66
2022/08/26 12:51:23;;;;;;;56.60;10.30;;;31.70;74.10;;;;;;4981729;28;20552;-66
2022/08/26 12:53:50;;;;;;;61.75;10.40;;;31.70;74.50;;;;;;4993047;28;20111;-65
2022/08/26 12:56:26;;;;;;;52.55;9.68;;;31.60;74.90;;;;;;4993464;28;20102;-67
2022/08/26 12:59:04;;;;;;;51.03;10.45;;;31.50;75.50;;;;;;5008158;28;20077;-65
2022/08/26 13:01:41;;;;;;;56.63;12.95;;;31.50;76.20;;;;;;5070531;28;20084;-64
2022/08/26 13:04:41;;;;;;;50.97;13.60;;;31.50;77.10;;;;;;5069412;28;20128;-65
2022/08/26 13:07:16;;;;;;;56.20;13.82;;;31.40;78.10;;;;;;5066013;28;20126;-64